Time,TemperatureF,DewpointF,PressureIn,WindDirection,WindDirectionDegrees,WindSpeedMPH,WindSpeedGustMPH,Humidity,HourlyPrecipIn,Conditions,Clouds,dailyrainin,SoftwareType,DateUTC
2013-06-14 00:06:00,58.1,45.5,29.88,North,-999,0.0,0.0,63,0.00,,,-99.99,FreeWX-Wi 1.01,2013-06-14 07:06:00,
2013-06-14 00:16:00,57.9,45.3,29.88,North,-999,0.0,0.0,63,0.00,,,-99.99,FreeWX-Wi 1.01,2013-06-14 07:16:00,
2013-06-14 00:26:00,57.9,45.3,29.88,North,-999,0.0,0.0,63,0.00,,,-99.99,FreeWX-Wi 1.01,2013-06-14 07:26:00,
2013-06-14 00:36:00,57.9,45.9,29.88,North,-999,0.0,0.0,64,0.00,,,-99.99,FreeWX-Wi 1.01,2013-06-14 07:36:00,
2013-06-14 00:46:00,57.9,45.9,29.88,North,-999,0.0,0.0,64,0.00,,,-99.99,FreeWX-Wi 1.01,2013-06-14 07:46:00,
2013-06-14 00:56:00,57.7,45.7,29.88,North,-999,0.0,0.0,64,0.00,,,-99.99,FreeWX-Wi 1.01,2013-06-14 07:56:00,
2013-06-14 01:06:00,57.6,45.5,29.85,North,-999,0.0,0.0,64,0.00,,,-99.99,FreeWX-Wi 1.01,2013-06-14 08:06:00,
2013-06-14 01:16:00,57.6,45.5,29.85,North,-999,0.0,0.0,64,0.00,,,-99.99,FreeWX-Wi 1.01,2013-06-14 08:16:00,
2013-06-14 01:26:00,57.6,45.9,29.85,North,-999,0.0,0.0,65,0.00,,,-99.99,FreeWX-Wi 1.01,2013-06-14 08:26:00,
2013-06-14 01:36:00,57.2,45.5,29.85,North,-999,0.0,0.0,65,0.00,,,-99.99,FreeWX-Wi 1.01,2013-06-14 08:36:00,
2013-06-14 01:46:00,57.2,45.5,29.85,North,-999,0.0,0.0,65,0.00,,,-99.99,FreeWX-Wi 1.01,2013-06-14 08:46:00,
2013-06-14 01:56:00,57.0,45.9,29.85,North,-999,0.0,2.7,66,0.00,,,-99.99,FreeWX-Wi 1.01,2013-06-14 08:56:00,
2013-06-14 02:06:00,57.0,45.9,29.85,North,-999,0.0,0.0,66,0.00,,,-99.99,FreeWX-Wi 1.01,2013-06-14 09:06:00,
2013-06-14 02:16:00,56.8,45.7,29.85,North,-999,0.0,0.0,66,0.00,,,-99.99,FreeWX-Wi 1.01,2013-06-14 09:16:00,
2013-06-14 02:26:00,56.8,45.7,29.85,North,-999,0.0,0.0,66,0.00,,,-99.99,FreeWX-Wi 1.01,2013-06-14 09:26:00,
2013-06-14 02:36:00,56.7,45.9,29.85,North,-999,0.0,3.6,67,0.00,,,-99.99,FreeWX-Wi 1.01,2013-06-14 09:36:00,
2013-06-14 02:46:00,56.7,45.9,29.85,North,-999,0.0,3.1,67,0.00,,,-99.99,FreeWX-Wi 1.01,2013-06-14 09:46:00,
2013-06-14 02:56:00,56.3,45.9,29.85,North,-999,0.0,4.0,68,0.00,,,-99.99,FreeWX-Wi 1.01,2013-06-14 09:56:00,
2013-06-14 03:06:00,56.3,45.9,29.82,North,-999,0.0,0.0,68,0.00,,,-99.99,FreeWX-Wi 1.01,2013-06-14 10:06:00,
2013-06-14 03:16:00,56.3,45.9,29.82,North,-999,0.0,0.0,68,0.00,,,-99.99,FreeWX-Wi 1.01,2013-06-14 10:16:00,
2013-06-14 03:26:00,56.3,45.9,29.82,North,-999,0.0,0.0,68,0.00,,,-99.99,FreeWX-Wi 1.01,2013-06-14 10:26:00,
2013-06-14 03:36:00,56.1,45.7,29.82,North,-999,0.0,0.0,68,0.00,,,-99.99,FreeWX-Wi 1.01,2013-06-14 10:36:00,
2013-06-14 03:46:00,56.1,45.7,29.82,North,-999,0.0,0.0,68,0.00,,,-99.99,FreeWX-Wi 1.01,2013-06-14 10:46:00,
2013-06-14 03:56:00,56.1,46.0,29.82,North,-999,0.0,0.0,69,0.00,,,-99.99,FreeWX-Wi 1.01,2013-06-14 10:56:00,
2013-06-14 04:06:00,56.3,46.2,29.82,North,-999,0.0,0.0,69,0.00,,,-99.99,FreeWX-Wi 1.01,2013-06-14 11:06:00,
2013-06-14 04:16:00,56.1,46.4,29.82,North,-999,0.0,0.0,70,0.00,,,-99.99,FreeWX-Wi 1.01,2013-06-14 11:16:00,
2013-06-14 04:26:00,56.1,46.4,29.82,North,-999,0.0,0.0,70,0.00,,,-99.99,FreeWX-Wi 1.01,2013-06-14 11:26:00,
2013-06-14 04:36:00,55.9,46.2,29.82,North,-999,0.0,0.0,70,0.00,,,-99.99,FreeWX-Wi 1.01,2013-06-14 11:36:00,
2013-06-14 04:46:00,55.9,46.2,29.82,North,-999,0.0,0.0,70,0.00,,,-99.99,FreeWX-Wi 1.01,2013-06-14 11:46:00,
2013-06-14 04:56:00,55.8,46.0,29.82,North,-999,0.0,0.0,70,0.00,,,-99.99,FreeWX-Wi 1.01,2013-06-14 11:56:00,
2013-06-14 05:06:00,55.8,46.6,29.82,North,-999,0.0,0.0,71,0.00,,,-99.99,FreeWX-Wi 1.01,2013-06-14 12:06:00,
2013-06-14 05:16:00,55.6,46.8,29.82,North,-999,0.0,0.0,72,0.00,,,-99.99,FreeWX-Wi 1.01,2013-06-14 12:16:00,
2013-06-14 05:26:00,55.4,46.9,29.82,North,-999,0.0,0.0,73,0.00,,,-99.99,FreeWX-Wi 1.01,2013-06-14 12:26:00,
2013-06-14 05:36:00,55.2,47.1,29.82,North,-999,0.0,0.0,74,0.00,,,-99.99,FreeWX-Wi 1.01,2013-06-14 12:36:00,
2013-06-14 05:46:00,55.2,47.1,29.82,North,-999,0.0,0.0,74,0.00,,,-99.99,FreeWX-Wi 1.01,2013-06-14 12:46:00,
2013-06-14 05:56:00,55.2,47.1,29.82,North,-999,0.0,0.0,74,0.00,,,-99.99,FreeWX-Wi 1.01,2013-06-14 12:56:00,
2013-06-14 06:06:00,55.2,47.1,29.82,North,-999,0.0,0.0,74,0.00,,,-99.99,FreeWX-Wi 1.01,2013-06-14 13:06:00,
2013-06-14 06:17:00,55.2,47.1,29.82,North,-999,0.0,0.0,74,0.00,,,-99.99,FreeWX-Wi 1.01,2013-06-14 13:17:00,
2013-06-14 06:27:00,55.6,47.5,29.82,North,-999,0.0,0.0,74,0.00,,,-99.99,FreeWX-Wi 1.01,2013-06-14 13:27:00,
2013-06-14 06:37:00,55.9,47.8,29.82,North,-999,0.0,0.0,74,0.00,,,-99.99,FreeWX-Wi 1.01,2013-06-14 13:37:00,
2013-06-14 06:47:00,56.3,48.2,29.82,North,-999,0.0,0.0,74,0.00,,,-99.99,FreeWX-Wi 1.01,2013-06-14 13:47:00,
2013-06-14 06:57:00,56.7,48.4,29.82,North,-999,0.0,0.0,74,0.00,,,-99.99,FreeWX-Wi 1.01,2013-06-14 13:57:00,
2013-06-14 07:07:00,57.2,48.6,29.82,North,-999,0.0,0.0,73,0.00,,,-99.99,FreeWX-Wi 1.01,2013-06-14 14:07:00,
2013-06-14 07:17:00,57.7,48.7,29.82,North,-999,0.0,0.0,72,0.00,,,-99.99,FreeWX-Wi 1.01,2013-06-14 14:17:00,
2013-06-14 07:27:00,58.3,48.9,29.82,North,-999,0.0,0.0,71,0.00,,,-99.99,FreeWX-Wi 1.01,2013-06-14 14:27:00,
2013-06-14 07:37:00,59.0,49.6,29.82,North,-999,0.0,0.0,71,0.00,,,-99.99,FreeWX-Wi 1.01,2013-06-14 14:37:00,
2013-06-14 07:47:00,59.9,50.5,29.82,North,-999,0.0,0.0,71,0.00,,,-99.99,FreeWX-Wi 1.01,2013-06-14 14:47:00,
2013-06-14 07:57:00,61.9,52.3,29.82,North,-999,0.0,0.0,71,0.00,,,-99.99,FreeWX-Wi 1.01,2013-06-14 14:57:00,
2013-06-14 08:07:00,66.2,55.8,29.82,North,-999,0.0,0.0,69,0.00,,,-99.99,FreeWX-Wi 1.01,2013-06-14 15:07:00,
2013-06-14 08:17:00,69.6,56.5,29.82,North,-999,0.0,4.9,63,0.00,,,-99.99,FreeWX-Wi 1.01,2013-06-14 15:17:00,
2013-06-14 08:27:00,71.2,47.7,29.82,North,-999,0.0,0.0,43,0.00,,,-99.99,FreeWX-Wi 1.01,2013-06-14 15:27:00,
2013-06-14 08:37:00,73.0,45.9,29.82,North,-999,0.0,0.0,38,0.00,,,-99.99,FreeWX-Wi 1.01,2013-06-14 15:37:00,
2013-06-14 08:47:00,73.6,43.5,29.82,North,-999,0.0,0.0,34,0.00,,,-99.99,FreeWX-Wi 1.01,2013-06-14 15:47:00,
2013-06-14 08:57:00,75.4,44.2,29.82,North,-999,0.0,0.0,33,0.00,,,-99.99,FreeWX-Wi 1.01,2013-06-14 15:57:00,
2013-06-14 09:07:00,75.6,43.7,29.82,North,-999,0.0,4.0,32,0.00,,,-99.99,FreeWX-Wi 1.01,2013-06-14 16:07:00,
2013-06-14 09:17:00,77.0,44.1,29.82,North,-999,0.0,4.0,31,0.00,,,-99.99,FreeWX-Wi 1.01,2013-06-14 16:17:00,
2013-06-14 09:27:00,76.3,43.3,29.82,North,-999,0.0,4.9,31,0.00,,,-99.99,FreeWX-Wi 1.01,2013-06-14 16:27:00,
2013-06-14 09:37:00,75.4,42.6,29.82,North,-999,0.0,4.9,31,0.00,,,-99.99,FreeWX-Wi 1.01,2013-06-14 16:37:00,
2013-06-14 09:47:00,74.8,42.1,29.82,North,-999,0.0,4.9,31,0.00,,,-99.99,FreeWX-Wi 1.01,2013-06-14 16:47:00,
2013-06-14 09:57:00,74.7,43.7,29.82,SE,130,1.0,4.0,33,0.00,,,-99.99,FreeWX-Wi 1.01,2013-06-14 16:57:00,
2013-06-14 10:07:00,74.8,43.7,29.82,SE,128,1.0,4.5,33,0.00,,,-99.99,FreeWX-Wi 1.01,2013-06-14 17:07:00,
2013-06-14 10:17:00,75.9,44.8,29.82,SE,134,1.0,5.4,33,0.00,,,-99.99,FreeWX-Wi 1.01,2013-06-14 17:17:00,
2013-06-14 10:27:00,75.9,43.2,29.82,ESE,106,1.0,4.0,31,0.00,,,-99.99,FreeWX-Wi 1.01,2013-06-14 17:27:00,
2013-06-14 10:37:00,75.7,41.2,29.82,East,95,1.0,3.6,29,0.00,,,-99.99,FreeWX-Wi 1.01,2013-06-14 17:37:00,
2013-06-14 10:47:00,76.3,39.7,29.82,ENE,69,1.0,4.9,27,0.00,,,-99.99,FreeWX-Wi 1.01,2013-06-14 17:47:00,
2013-06-14 10:57:00,76.5,39.9,29.82,NE,47,1.0,5.8,27,0.00,,,-99.99,FreeWX-Wi 1.01,2013-06-14 17:57:00,
2013-06-14 11:07:00,76.3,40.8,29.82,North,5,2.0,7.2,28,0.00,,,-99.99,FreeWX-Wi 1.01,2013-06-14 18:07:00,
2013-06-14 11:17:00,75.0,42.3,29.82,NNW,343,3.0,8.1,31,0.00,,,-99.99,FreeWX-Wi 1.01,2013-06-14 18:17:00,
2013-06-14 11:27:00,74.7,42.8,29.82,NNW,331,4.0,8.1,32,0.00,,,-99.99,FreeWX-Wi 1.01,2013-06-14 18:27:00,
2013-06-14 11:37:00,76.1,43.3,29.82,NNW,329,4.0,7.2,31,0.00,,,-99.99,FreeWX-Wi 1.01,2013-06-14 18:37:00,
2013-06-14 11:47:00,77.2,43.3,29.79,NNW,339,3.0,7.6,30,0.00,,,-99.99,FreeWX-Wi 1.01,2013-06-14 18:47:00,
2013-06-14 11:57:00,78.8,41.9,29.79,North,351,3.0,6.7,27,0.00,,,-99.99,FreeWX-Wi 1.01,2013-06-14 18:57:00,
2013-06-14 12:07:00,79.9,40.8,29.79,North,0,3.0,6.3,25,0.00,,,-99.99,FreeWX-Wi 1.01,2013-06-14 19:07:00,
2013-06-14 12:17:00,81.1,40.8,29.79,North,11,3.0,6.3,24,0.00,,,-99.99,FreeWX-Wi 1.01,2013-06-14 19:17:00,
2013-06-14 12:27:00,81.5,41.2,29.79,NNE,24,3.0,6.7,24,0.00,,,-99.99,FreeWX-Wi 1.01,2013-06-14 19:27:00,
2013-06-14 12:37:00,82.0,41.7,29.79,NE,38,3.0,7.2,24,0.00,,,-99.99,FreeWX-Wi 1.01,2013-06-14 19:37:00,
2013-06-14 12:47:00,81.9,41.5,29.79,NE,45,4.0,6.7,24,0.00,,,-99.99,FreeWX-Wi 1.01,2013-06-14 19:47:00,
2013-06-14 12:57:00,81.1,40.8,29.79,NE,47,4.0,8.1,24,0.00,,,-99.99,FreeWX-Wi 1.01,2013-06-14 19:57:00,
2013-06-14 13:07:00,79.3,40.5,29.79,NE,35,4.0,7.2,25,0.00,,,-99.99,FreeWX-Wi 1.01,2013-06-14 20:07:00,
2013-06-14 13:17:00,78.3,40.5,29.79,North,8,3.0,6.3,26,0.00,,,-99.99,FreeWX-Wi 1.01,2013-06-14 20:17:00,
2013-06-14 13:27:00,77.9,41.2,29.79,North,4,3.0,8.1,27,0.00,,,-99.99,FreeWX-Wi 1.01,2013-06-14 20:27:00,
2013-06-14 13:37:00,77.2,40.6,29.79,North,350,3.0,8.1,27,0.00,,,-99.99,FreeWX-Wi 1.01,2013-06-14 20:37:00,
2013-06-14 13:47:00,76.1,41.5,29.79,NW,310,3.0,8.1,29,0.00,,,-99.99,FreeWX-Wi 1.01,2013-06-14 20:47:00,
2013-06-14 13:57:00,75.4,41.7,29.79,NW,311,3.0,10.1,30,0.00,,,-99.99,FreeWX-Wi 1.01,2013-06-14 20:57:00,
2013-06-14 14:07:00,73.9,41.4,29.79,NW,325,4.0,10.5,31,0.00,,,-99.99,FreeWX-Wi 1.01,2013-06-14 21:07:00,
2013-06-14 14:17:00,73.9,42.3,29.79,NNW,332,4.0,8.3,32,0.00,,,-99.99,FreeWX-Wi 1.01,2013-06-14 21:17:00,
2013-06-14 14:27:00,73.9,42.3,29.79,NNW,329,5.0,12.3,32,0.00,,,-99.99,FreeWX-Wi 1.01,2013-06-14 21:27:00,
2013-06-14 14:37:00,73.2,42.4,29.76,NNW,334,5.0,8.3,33,0.00,,,-99.99,FreeWX-Wi 1.01,2013-06-14 21:37:00,
2013-06-14 14:47:00,73.2,42.4,29.76,North,352,4.0,7.6,33,0.00,,,-99.99,FreeWX-Wi 1.01,2013-06-14 21:47:00,
2013-06-14 14:57:00,74.5,42.6,29.76,NNE,23,4.0,6.3,32,0.00,,,-99.99,FreeWX-Wi 1.01,2013-06-14 21:57:00,
2013-06-14 15:07:00,73.4,41.7,29.76,NE,53,3.0,5.8,32,0.00,,,-99.99,FreeWX-Wi 1.01,2013-06-14 22:07:00,
2013-06-14 15:17:00,72.5,42.4,29.76,ESE,120,3.0,8.3,34,0.00,,,-99.99,FreeWX-Wi 1.01,2013-06-14 22:17:00,
2013-06-14 15:27:00,70.5,42.3,29.76,SSW,207,3.0,8.3,36,0.00,,,-99.99,FreeWX-Wi 1.01,2013-06-14 22:27:00,
2013-06-14 15:37:00,69.4,42.8,29.76,NW,325,4.0,11.0,38,0.00,,,-99.99,FreeWX-Wi 1.01,2013-06-14 22:37:00,
2013-06-14 15:47:00,69.3,43.2,29.76,NNW,327,5.0,11.0,39,0.00,,,-99.99,FreeWX-Wi 1.01,2013-06-14 22:47:00,
2013-06-14 15:57:00,68.5,43.3,29.76,NNW,334,5.0,10.5,40,0.00,,,-99.99,FreeWX-Wi 1.01,2013-06-14 22:57:00,
2013-06-14 16:07:00,67.8,44.4,29.76,NNW,332,6.0,11.0,43,0.00,,,-99.99,FreeWX-Wi 1.01,2013-06-14 23:07:00,
2013-06-14 16:17:00,66.9,44.2,29.74,NNW,335,6.0,10.5,44,0.00,,,-99.99,FreeWX-Wi 1.01,2013-06-14 23:17:00,
2013-06-14 16:27:00,67.3,44.1,29.74,NNW,331,5.0,9.6,43,0.00,,,-99.99,FreeWX-Wi 1.01,2013-06-14 23:27:00,
2013-06-14 16:37:00,66.7,44.1,29.74,NNW,336,5.0,8.3,44,0.00,,,-99.99,FreeWX-Wi 1.01,2013-06-14 23:37:00,
2013-06-14 16:47:00,66.7,44.1,29.74,NNW,339,5.0,12.8,44,0.00,,,-99.99,FreeWX-Wi 1.01,2013-06-14 23:47:00,
2013-06-14 16:57:00,66.6,43.9,29.74,NNW,329,4.0,11.0,44,0.00,,,-99.99,FreeWX-Wi 1.01,2013-06-14 23:57:00,
2013-06-14 17:07:00,66.7,44.1,29.74,NW,307,4.0,8.3,44,0.00,,,-99.99,FreeWX-Wi 1.01,2013-06-15 00:07:00,
2013-06-14 17:17:00,66.2,43.0,29.74,WNW,299,3.0,8.7,43,0.00,,,-99.99,FreeWX-Wi 1.01,2013-06-15 00:17:00,
2013-06-14 17:27:00,65.8,43.9,29.74,NW,315,4.0,10.1,45,0.00,,,-99.99,FreeWX-Wi 1.01,2013-06-15 00:27:00,
2013-06-14 17:37:00,65.1,43.2,29.74,NNW,331,4.0,10.5,45,0.00,,,-99.99,FreeWX-Wi 1.01,2013-06-15 00:37:00,
2013-06-14 17:47:00,64.6,43.9,29.74,NNW,330,4.0,8.3,47,0.00,,,-99.99,FreeWX-Wi 1.01,2013-06-15 00:47:00,
2013-06-14 17:57:00,64.2,44.1,29.74,NW,320,4.0,8.1,48,0.00,,,-99.99,FreeWX-Wi 1.01,2013-06-15 00:57:00,
2013-06-14 18:07:00,63.5,44.1,29.74,NW,315,4.0,12.3,49,0.00,,,-99.99,FreeWX-Wi 1.01,2013-06-15 01:07:00,
2013-06-14 18:17:00,63.0,44.6,29.74,NW,306,4.0,7.6,51,0.00,,,-99.99,FreeWX-Wi 1.01,2013-06-15 01:17:00,
2013-06-14 18:27:00,62.4,44.6,29.74,WNW,295,4.0,7.6,52,0.00,,,-99.99,FreeWX-Wi 1.01,2013-06-15 01:27:00,
2013-06-14 18:37:00,61.9,44.6,29.74,West,280,4.0,8.3,53,0.00,,,-99.99,FreeWX-Wi 1.01,2013-06-15 01:37:00,
2013-06-14 18:47:00,61.5,44.8,29.74,West,280,3.0,8.1,54,0.00,,,-99.99,FreeWX-Wi 1.01,2013-06-15 01:47:00,
2013-06-14 18:57:00,61.0,44.8,29.74,WSW,238,4.0,8.1,55,0.00,,,-99.99,FreeWX-Wi 1.01,2013-06-15 01:57:00,
2013-06-14 19:07:00,60.4,45.1,29.74,SSW,204,3.0,7.2,57,0.00,,,-99.99,FreeWX-Wi 1.01,2013-06-15 02:07:00,
2013-06-14 19:17:00,60.4,45.5,29.74,South,184,3.0,8.1,58,0.00,,,-99.99,FreeWX-Wi 1.01,2013-06-15 02:17:00,
2013-06-14 19:27:00,60.6,45.3,29.74,SSE,159,3.0,8.3,57,0.00,,,-99.99,FreeWX-Wi 1.01,2013-06-15 02:27:00,
2013-06-14 19:37:00,60.4,45.1,29.74,SSE,167,2.0,5.8,57,0.00,,,-99.99,FreeWX-Wi 1.01,2013-06-15 02:37:00,
2013-06-14 19:47:00,60.1,45.3,29.74,South,169,2.0,6.3,58,0.00,,,-99.99,FreeWX-Wi 1.01,2013-06-15 02:47:00,
2013-06-14 19:57:00,59.5,45.1,29.74,South,174,2.0,6.3,59,0.00,,,-99.99,FreeWX-Wi 1.01,2013-06-15 02:57:00,
2013-06-14 20:07:00,59.0,45.5,29.74,South,184,1.0,4.0,61,0.00,,,-99.99,FreeWX-Wi 1.01,2013-06-15 03:07:00,
2013-06-14 20:17:00,58.5,45.9,29.74,SSW,203,1.0,5.4,63,0.00,,,-99.99,FreeWX-Wi 1.01,2013-06-15 03:17:00,
2013-06-14 20:27:00,57.9,46.6,29.74,WSW,254,2.0,8.1,66,0.00,,,-99.99,FreeWX-Wi 1.01,2013-06-15 03:27:00,
2013-06-14 20:37:00,57.2,46.8,29.74,WSW,249,2.0,6.3,68,0.00,,,-99.99,FreeWX-Wi 1.01,2013-06-15 03:37:00,
2013-06-14 20:47:00,56.8,47.1,29.74,WNW,283,2.0,7.6,70,0.00,,,-99.99,FreeWX-Wi 1.01,2013-06-15 03:47:00,
2013-06-14 20:57:00,56.3,47.3,29.74,NNW,338,4.0,10.1,72,0.00,,,-99.99,FreeWX-Wi 1.01,2013-06-15 03:57:00,
2013-06-14 21:07:00,56.1,48.0,29.74,North,353,4.0,8.7,74,0.00,,,-99.99,FreeWX-Wi 1.01,2013-06-15 04:07:00,
2013-06-14 21:17:00,55.8,48.0,29.74,NNW,348,6.0,11.0,75,0.00,,,-99.99,FreeWX-Wi 1.01,2013-06-15 04:17:00,
2013-06-14 21:27:00,55.6,48.2,29.74,NNW,342,5.0,8.3,76,0.00,,,-99.99,FreeWX-Wi 1.01,2013-06-15 04:27:00,
2013-06-14 21:37:00,55.4,48.4,29.74,NNW,337,4.0,8.3,77,0.00,,,-99.99,FreeWX-Wi 1.01,2013-06-15 04:37:00,
2013-06-14 21:47:00,55.4,48.4,29.74,NNW,343,2.0,6.3,77,0.00,,,-99.99,FreeWX-Wi 1.01,2013-06-15 04:47:00,
2013-06-14 21:57:00,55.4,48.4,29.74,NNW,345,2.0,5.8,77,0.00,,,-99.99,FreeWX-Wi 1.01,2013-06-15 04:57:00,
2013-06-14 22:07:00,55.4,48.4,29.76,NNW,347,2.0,5.8,77,0.00,,,-99.99,FreeWX-Wi 1.01,2013-06-15 05:07:00,
2013-06-14 22:17:00,55.2,48.6,29.74,NNW,339,2.0,5.8,78,0.00,,,-99.99,FreeWX-Wi 1.01,2013-06-15 05:17:00,
2013-06-14 22:27:00,55.0,48.6,29.74,NNW,335,2.0,5.8,79,0.00,,,-99.99,FreeWX-Wi 1.01,2013-06-15 05:27:00,
2013-06-14 22:37:00,55.0,48.6,29.74,NNW,338,1.0,4.9,79,0.00,,,-99.99,FreeWX-Wi 1.01,2013-06-15 05:37:00,
2013-06-14 22:47:00,55.0,48.6,29.76,North,-999,0.0,2.7,79,0.00,,,-99.99,FreeWX-Wi 1.01,2013-06-15 05:47:00,
2013-06-14 22:57:00,55.0,48.6,29.76,North,-999,0.0,4.9,79,0.00,,,-99.99,FreeWX-Wi 1.01,2013-06-15 05:57:00,
2013-06-14 23:07:00,55.0,48.4,29.74,North,-999,0.0,4.0,78,0.00,,,-99.99,FreeWX-Wi 1.01,2013-06-15 06:07:00,
2013-06-14 23:17:00,55.2,48.6,29.74,North,-999,0.0,3.1,78,0.00,,,-99.99,FreeWX-Wi 1.01,2013-06-15 06:17:00,
2013-06-14 23:27:00,55.0,48.0,29.74,North,-999,0.0,4.9,77,0.00,,,-99.99,FreeWX-Wi 1.01,2013-06-15 06:27:00,
2013-06-14 23:37:00,55.0,48.4,29.74,North,-999,0.0,4.9,78,0.00,,,-99.99,FreeWX-Wi 1.01,2013-06-15 06:37:00,
2013-06-14 23:47:00,54.9,48.2,29.74,NNW,343,1.0,5.8,78,0.00,,,-99.99,FreeWX-Wi 1.01,2013-06-15 06:47:00,
2013-06-14 23:57:00,54.7,48.4,29.74,NNW,341,1.0,4.5,79,0.00,,,-99.99,FreeWX-Wi 1.01,2013-06-15 06:57:00,